NoPaste

Burgwald

von willy4711

Dein Code:
  1. <?xml version="1.0" encoding="UTF-8"?>
  2. <gpx xmlns="http://www.topografix.com/GPX/1/1" xmlns:gpsies="https://www.gpsies.com/GPX/1/0" creator="GPSies https://www.gpsies.com - GPSies Track" version="1.1" xmlns:xsi="http://www.w3.org/2001/XMLSchema-instance" xsi:schemaLocation="http://www.topografix.com/GPX/1/1 http://www.topografix.com/GPX/1/1/gpx.xsd https://www.gpsies.com/GPX/1/0 https://www.gpsies.com/gpsies.xsd">
  3.   <metadata>
  4.     <name>GPSies Track</name>
  5.     <link href="https://www.gpsies.com/">
  6.       <text>GPSies Track on GPSies.com</text>
  7.     </link>
  8.     <time>2019-06-22T20:29:57Z</time>
  9.   </metadata>
  10.   <trk>
  11.     <name>GPSies Track on GPSies.com</name>
  12.     <trkseg>
  13.       <trkpt lat="51.02120591" lon="8.755245208">
  14.         <ele>368.00000</ele>
  15.         <time>2010-01-01T00:00:00Z</time>
  16.       </trkpt>
  17.       <trkpt lat="51.02121000" lon="8.755280000">
  18.         <ele>368.00000</ele>
  19.         <time>2010-01-01T00:00:00Z</time>
  20.       </trkpt>
  21.       <trkpt lat="51.02076000" lon="8.755640000">
  22.         <ele>368.00000</ele>
  23.         <time>2010-01-01T00:00:21Z</time>
  24.       </trkpt>
  25.       <trkpt lat="51.02055000" lon="8.755830000">
  26.         <ele>368.00000</ele>
  27.         <time>2010-01-01T00:00:30Z</time>
  28.       </trkpt>
  29.       <trkpt lat="51.02030000" lon="8.755790000">
  30.         <ele>368.00000</ele>
  31.         <time>2010-01-01T00:00:40Z</time>
  32.       </trkpt>
  33.       <trkpt lat="51.02019000" lon="8.755520000">
  34.         <ele>367.00000</ele>
  35.         <time>2010-01-01T00:00:48Z</time>
  36.       </trkpt>
  37.       <trkpt lat="51.02007000" lon="8.755470000">
  38.         <ele>366.00000</ele>
  39.         <time>2010-01-01T00:00:53Z</time>
  40.       </trkpt>
  41.       <trkpt lat="51.02006000" lon="8.755570000">
  42.         <ele>366.00000</ele>
  43.         <time>2010-01-01T00:00:56Z</time>
  44.       </trkpt>
  45.       <trkpt lat="51.02002000" lon="8.755660000">
  46.         <ele>366.00000</ele>
  47.         <time>2010-01-01T00:00:59Z</time>
  48.       </trkpt>
  49.       <trkpt lat="51.01998000" lon="8.755910000">
  50.         <ele>365.00000</ele>
  51.         <time>2010-01-01T00:01:05Z</time>
  52.       </trkpt>
  53.       <trkpt lat="51.01990000" lon="8.756170000">
  54.         <ele>365.00000</ele>
  55.         <time>2010-01-01T00:01:12Z</time>
  56.       </trkpt>
  57.       <trkpt lat="51.01974000" lon="8.757120000">
  58.         <ele>368.00000</ele>
  59.         <time>2010-01-01T00:01:37Z</time>
  60.       </trkpt>
  61.       <trkpt lat="51.01990000" lon="8.756170000">
  62.         <ele>365.00000</ele>
  63.         <time>2010-01-01T00:02:02Z</time>
  64.       </trkpt>
  65.       <trkpt lat="51.01998000" lon="8.755910000">
  66.         <ele>365.00000</ele>
  67.         <time>2010-01-01T00:02:09Z</time>
  68.       </trkpt>
  69.       <trkpt lat="51.02002000" lon="8.755660000">
  70.         <ele>366.00000</ele>
  71.         <time>2010-01-01T00:02:16Z</time>
  72.       </trkpt>
  73.       <trkpt lat="51.02006000" lon="8.755570000">
  74.         <ele>366.00000</ele>
  75.         <time>2010-01-01T00:02:19Z</time>
  76.       </trkpt>
  77.       <trkpt lat="51.02007000" lon="8.755470000">
  78.         <ele>366.00000</ele>
  79.         <time>2010-01-01T00:02:21Z</time>
  80.       </trkpt>
  81.       <trkpt lat="51.02019000" lon="8.755520000">
  82.         <ele>367.00000</ele>
  83.         <time>2010-01-01T00:02:26Z</time>
  84.       </trkpt>
  85.       <trkpt lat="51.02030000" lon="8.755790000">
  86.         <ele>368.00000</ele>
  87.         <time>2010-01-01T00:02:34Z</time>
  88.       </trkpt>
  89.       <trkpt lat="51.02055000" lon="8.755830000">
  90.         <ele>368.00000</ele>
  91.         <time>2010-01-01T00:02:44Z</time>
  92.       </trkpt>
  93.       <trkpt lat="51.02076000" lon="8.755640000">
  94.         <ele>368.00000</ele>
  95.         <time>2010-01-01T00:02:54Z</time>
  96.       </trkpt>
  97.       <trkpt lat="51.02133000" lon="8.755190000">
  98.         <ele>368.00000</ele>
  99.         <time>2010-01-01T00:03:19Z</time>
  100.       </trkpt>
  101.       <trkpt lat="51.02243000" lon="8.754370000">
  102.         <ele>368.00000</ele>
  103.         <time>2010-01-01T00:04:08Z</time>
  104.       </trkpt>
  105.       <trkpt lat="51.02245000" lon="8.754310000">
  106.         <ele>368.00000</ele>
  107.         <time>2010-01-01T00:04:10Z</time>
  108.       </trkpt>
  109.       <trkpt lat="51.02381000" lon="8.751440000">
  110.         <ele>355.00000</ele>
  111.         <time>2010-01-01T00:05:40Z</time>
  112.       </trkpt>
  113.       <trkpt lat="51.02505000" lon="8.748760000">
  114.         <ele>331.00000</ele>
  115.         <time>2010-01-01T00:07:04Z</time>
  116.       </trkpt>
  117.       <trkpt lat="51.02504000" lon="8.748750000">
  118.         <ele>331.00000</ele>
  119.         <time>2010-01-01T00:07:04Z</time>
  120.       </trkpt>
  121.       <trkpt lat="51.02504000" lon="8.748740000">
  122.         <ele>331.00000</ele>
  123.         <time>2010-01-01T00:07:05Z</time>
  124.       </trkpt>
  125.       <trkpt lat="51.02449000" lon="8.748250000">
  126.         <ele>330.00000</ele>
  127.         <time>2010-01-01T00:07:30Z</time>
  128.       </trkpt>
  129.       <trkpt lat="51.02387000" lon="8.747660000">
  130.         <ele>328.00000</ele>
  131.         <time>2010-01-01T00:07:59Z</time>
  132.       </trkpt>
  133.       <trkpt lat="51.02386000" lon="8.747680000">
  134.         <ele>328.00000</ele>
  135.         <time>2010-01-01T00:07:59Z</time>
  136.       </trkpt>
  137.       <trkpt lat="51.02387000" lon="8.747660000">
  138.         <ele>328.00000</ele>
  139.         <time>2010-01-01T00:08:00Z</time>
  140.       </trkpt>
  141.       <trkpt lat="51.02367000" lon="8.747460000">
  142.         <ele>329.00000</ele>
  143.         <time>2010-01-01T00:08:10Z</time>
  144.       </trkpt>
  145.       <trkpt lat="51.02308000" lon="8.746890000">
  146.         <ele>330.00000</ele>
  147.         <time>2010-01-01T00:08:37Z</time>
  148.       </trkpt>
  149.       <trkpt lat="51.02273000" lon="8.746700000">
  150.         <ele>331.00000</ele>
  151.         <time>2010-01-01T00:08:52Z</time>
  152.       </trkpt>
  153.       <trkpt lat="51.02273000" lon="8.746690000">
  154.         <ele>331.00000</ele>
  155.         <time>2010-01-01T00:08:52Z</time>
  156.       </trkpt>
  157.       <trkpt lat="51.02206000" lon="8.746350000">
  158.         <ele>334.00000</ele>
  159.         <time>2010-01-01T00:09:20Z</time>
  160.       </trkpt>
  161.       <trkpt lat="51.02158000" lon="8.746030000">
  162.         <ele>336.00000</ele>
  163.         <time>2010-01-01T00:09:41Z</time>
  164.       </trkpt>
  165.       <trkpt lat="51.02152000" lon="8.745960000">
  166.         <ele>336.00000</ele>
  167.         <time>2010-01-01T00:09:44Z</time>
  168.       </trkpt>
  169.       <trkpt lat="51.02147000" lon="8.745850000">
  170.         <ele>336.00000</ele>
  171.         <time>2010-01-01T00:09:48Z</time>
  172.       </trkpt>
  173.       <trkpt lat="51.02112493" lon="8.745567798">
  174.         <ele>336.00000</ele>
  175.         <time>2010-01-01T00:10:03Z</time>
  176.       </trkpt>
  177.       <trkpt lat="51.02111000" lon="8.745610000">
  178.         <ele>337.00000</ele>
  179.         <time>2010-01-01T00:10:04Z</time>
  180.       </trkpt>
  181.       <trkpt lat="51.02061000" lon="8.745460000">
  182.         <ele>338.00000</ele>
  183.         <time>2010-01-01T00:10:25Z</time>
  184.       </trkpt>
  185.       <trkpt lat="51.01988000" lon="8.745410000">
  186.         <ele>340.00000</ele>
  187.         <time>2010-01-01T00:10:54Z</time>
  188.       </trkpt>
  189.       <trkpt lat="51.01988000" lon="8.745400000">
  190.         <ele>340.00000</ele>
  191.         <time>2010-01-01T00:10:54Z</time>
  192.       </trkpt>
  193.       <trkpt lat="51.01945000" lon="8.744950000">
  194.         <ele>337.00000</ele>
  195.         <time>2010-01-01T00:11:15Z</time>
  196.       </trkpt>
  197.       <trkpt lat="51.01938000" lon="8.744910000">
  198.         <ele>337.00000</ele>
  199.         <time>2010-01-01T00:11:18Z</time>
  200.       </trkpt>
  201.       <trkpt lat="51.01902600" lon="8.745095729">
  202.         <ele>342.00000</ele>
  203.         <time>2010-01-01T00:11:33Z</time>
  204.       </trkpt>
  205.       <trkpt lat="51.01833759" lon="8.745943307">
  206.         <ele>361.00000</ele>
  207.         <time>2010-01-01T00:12:08Z</time>
  208.       </trkpt>
  209.       <trkpt lat="51.01806087" lon="8.746490478">
  210.         <ele>360.00000</ele>
  211.         <time>2010-01-01T00:12:25Z</time>
  212.       </trkpt>
  213.       <trkpt lat="51.01795963" lon="8.746747970">
  214.         <ele>358.00000</ele>
  215.         <time>2010-01-01T00:12:33Z</time>
  216.       </trkpt>
  217.       <trkpt lat="51.01790564" lon="8.746919631">
  218.         <ele>357.00000</ele>
  219.         <time>2010-01-01T00:12:38Z</time>
  220.       </trkpt>
  221.       <trkpt lat="51.01791000" lon="8.746900000">
  222.         <ele>357.00000</ele>
  223.         <time>2010-01-01T00:12:38Z</time>
  224.       </trkpt>
  225.       <trkpt lat="51.01923000" lon="8.748730000">
  226.         <ele>352.00000</ele>
  227.         <time>2010-01-01T00:13:48Z</time>
  228.       </trkpt>
  229.       <trkpt lat="51.01922000" lon="8.748730000">
  230.         <ele>352.00000</ele>
  231.         <time>2010-01-01T00:13:49Z</time>
  232.       </trkpt>
  233.       <trkpt lat="51.01979000" lon="8.749570000">
  234.         <ele>351.00000</ele>
  235.         <time>2010-01-01T00:14:20Z</time>
  236.       </trkpt>
  237.       <trkpt lat="51.01989000" lon="8.749830000">
  238.         <ele>351.00000</ele>
  239.         <time>2010-01-01T00:14:28Z</time>
  240.       </trkpt>
  241.       <trkpt lat="51.01983000" lon="8.749740000">
  242.         <ele>351.00000</ele>
  243.         <time>2010-01-01T00:14:31Z</time>
  244.       </trkpt>
  245.       <trkpt lat="51.01983000" lon="8.749730000">
  246.         <ele>351.00000</ele>
  247.         <time>2010-01-01T00:14:31Z</time>
  248.       </trkpt>
  249.       <trkpt lat="51.01989000" lon="8.749830000">
  250.         <ele>351.00000</ele>
  251.         <time>2010-01-01T00:14:35Z</time>
  252.       </trkpt>
  253.       <trkpt lat="51.01992000" lon="8.750050000">
  254.         <ele>352.00000</ele>
  255.         <time>2010-01-01T00:14:40Z</time>
  256.       </trkpt>
  257.       <trkpt lat="51.01986000" lon="8.750520000">
  258.         <ele>352.00000</ele>
  259.         <time>2010-01-01T00:14:52Z</time>
  260.       </trkpt>
  261.       <trkpt lat="51.01984000" lon="8.750810000">
  262.         <ele>352.00000</ele>
  263.         <time>2010-01-01T00:15:00Z</time>
  264.       </trkpt>
  265.       <trkpt lat="51.01987000" lon="8.750900000">
  266.         <ele>352.00000</ele>
  267.         <time>2010-01-01T00:15:02Z</time>
  268.       </trkpt>
  269.       <trkpt lat="51.01997000" lon="8.750760000">
  270.         <ele>352.00000</ele>
  271.         <time>2010-01-01T00:15:08Z</time>
  272.       </trkpt>
  273.       <trkpt lat="51.01998000" lon="8.750750000">
  274.         <ele>352.00000</ele>
  275.         <time>2010-01-01T00:15:08Z</time>
  276.       </trkpt>
  277.       <trkpt lat="51.01996000" lon="8.750780000">
  278.         <ele>352.00000</ele>
  279.         <time>2010-01-01T00:15:09Z</time>
  280.       </trkpt>
  281.       <trkpt lat="51.01966000" lon="8.751170000">
  282.         <ele>352.00000</ele>
  283.         <time>2010-01-01T00:15:25Z</time>
  284.       </trkpt>
  285.       <trkpt lat="51.01935000" lon="8.751320000">
  286.         <ele>351.00000</ele>
  287.         <time>2010-01-01T00:15:38Z</time>
  288.       </trkpt>
  289.       <trkpt lat="51.01951000" lon="8.751970000">
  290.         <ele>352.00000</ele>
  291.         <time>2010-01-01T00:15:55Z</time>
  292.       </trkpt>
  293.       <trkpt lat="51.01979000" lon="8.751990000">
  294.         <ele>355.00000</ele>
  295.         <time>2010-01-01T00:16:07Z</time>
  296.       </trkpt>
  297.       <trkpt lat="51.02010000" lon="8.752100000">
  298.         <ele>357.00000</ele>
  299.         <time>2010-01-01T00:16:19Z</time>
  300.       </trkpt>
  301.       <trkpt lat="51.02039000" lon="8.752060000">
  302.         <ele>357.00000</ele>
  303.         <time>2010-01-01T00:16:31Z</time>
  304.       </trkpt>
  305.       <trkpt lat="51.02056000" lon="8.752090000">
  306.         <ele>358.00000</ele>
  307.         <time>2010-01-01T00:16:38Z</time>
  308.       </trkpt>
  309.       <trkpt lat="51.02067000" lon="8.751430000">
  310.         <ele>357.00000</ele>
  311.         <time>2010-01-01T00:16:55Z</time>
  312.       </trkpt>
  313.       <trkpt lat="51.02056000" lon="8.752090000">
  314.         <ele>358.00000</ele>
  315.         <time>2010-01-01T00:17:12Z</time>
  316.       </trkpt>
  317.       <trkpt lat="51.02062000" lon="8.752120000">
  318.         <ele>358.00000</ele>
  319.         <time>2010-01-01T00:17:15Z</time>
  320.       </trkpt>
  321.       <trkpt lat="51.02063000" lon="8.751970000">
  322.         <ele>358.00000</ele>
  323.         <time>2010-01-01T00:17:18Z</time>
  324.       </trkpt>
  325.       <trkpt lat="51.02076000" lon="8.751000000">
  326.         <ele>355.00000</ele>
  327.         <time>2010-01-01T00:17:43Z</time>
  328.       </trkpt>
  329.       <trkpt lat="51.02078000" lon="8.750700000">
  330.         <ele>353.00000</ele>
  331.         <time>2010-01-01T00:17:51Z</time>
  332.       </trkpt>
  333.       <trkpt lat="51.02074000" lon="8.750440000">
  334.         <ele>351.00000</ele>
  335.         <time>2010-01-01T00:17:58Z</time>
  336.       </trkpt>
  337.       <trkpt lat="51.02074000" lon="8.750430000">
  338.         <ele>351.00000</ele>
  339.         <time>2010-01-01T00:17:58Z</time>
  340.       </trkpt>
  341.       <trkpt lat="51.02058000" lon="8.749180000">
  342.         <ele>348.00000</ele>
  343.         <time>2010-01-01T00:18:30Z</time>
  344.       </trkpt>
  345.       <trkpt lat="51.02058000" lon="8.749170000">
  346.         <ele>348.00000</ele>
  347.         <time>2010-01-01T00:18:30Z</time>
  348.       </trkpt>
  349.       <trkpt lat="51.02055000" lon="8.749020000">
  350.         <ele>347.00000</ele>
  351.         <time>2010-01-01T00:18:34Z</time>
  352.       </trkpt>
  353.       <trkpt lat="51.02070000" lon="8.748900000">
  354.         <ele>347.00000</ele>
  355.         <time>2010-01-01T00:18:41Z</time>
  356.       </trkpt>
  357.       <trkpt lat="51.02084000" lon="8.748790000">
  358.         <ele>346.00000</ele>
  359.         <time>2010-01-01T00:18:47Z</time>
  360.       </trkpt>
  361.       <trkpt lat="51.02105000" lon="8.748710000">
  362.         <ele>347.00000</ele>
  363.         <time>2010-01-01T00:18:56Z</time>
  364.       </trkpt>
  365.       <trkpt lat="51.02112000" lon="8.748710000">
  366.         <ele>347.00000</ele>
  367.         <time>2010-01-01T00:18:59Z</time>
  368.       </trkpt>
  369.       <trkpt lat="51.02130000" lon="8.748870000">
  370.         <ele>348.00000</ele>
  371.         <time>2010-01-01T00:19:07Z</time>
  372.       </trkpt>
  373.       <trkpt lat="51.02151000" lon="8.749000000">
  374.         <ele>350.00000</ele>
  375.         <time>2010-01-01T00:19:16Z</time>
  376.       </trkpt>
  377.       <trkpt lat="51.02150000" lon="8.749000000">
  378.         <ele>350.00000</ele>
  379.         <time>2010-01-01T00:19:16Z</time>
  380.       </trkpt>
  381.       <trkpt lat="51.02186000" lon="8.749230000">
  382.         <ele>353.00000</ele>
  383.         <time>2010-01-01T00:19:32Z</time>
  384.       </trkpt>
  385.       <trkpt lat="51.02199000" lon="8.749350000">
  386.         <ele>354.00000</ele>
  387.         <time>2010-01-01T00:19:38Z</time>
  388.       </trkpt>
  389.       <trkpt lat="51.02332000" lon="8.750770000">
  390.         <ele>352.00000</ele>
  391.         <time>2010-01-01T00:20:42Z</time>
  392.       </trkpt>
  393.       <trkpt lat="51.02332000" lon="8.750760000">
  394.         <ele>352.00000</ele>
  395.         <time>2010-01-01T00:20:42Z</time>
  396.       </trkpt>
  397.       <trkpt lat="51.02385000" lon="8.751350000">
  398.         <ele>354.00000</ele>
  399.         <time>2010-01-01T00:21:08Z</time>
  400.       </trkpt>
  401.       <trkpt lat="51.02413000" lon="8.751790000">
  402.         <ele>354.00000</ele>
  403.         <time>2010-01-01T00:21:24Z</time>
  404.       </trkpt>
  405.       <trkpt lat="51.02460000" lon="8.752430000">
  406.         <ele>351.00000</ele>
  407.         <time>2010-01-01T00:21:49Z</time>
  408.       </trkpt>
  409.       <trkpt lat="51.02515000" lon="8.753300000">
  410.         <ele>348.00000</ele>
  411.         <time>2010-01-01T00:22:20Z</time>
  412.       </trkpt>
  413.       <trkpt lat="51.02515000" lon="8.753290000">
  414.         <ele>348.00000</ele>
  415.         <time>2010-01-01T00:22:20Z</time>
  416.       </trkpt>
  417.       <trkpt lat="51.02547000" lon="8.753800000">
  418.         <ele>347.00000</ele>
  419.         <time>2010-01-01T00:22:38Z</time>
  420.       </trkpt>
  421.       <trkpt lat="51.02581000" lon="8.754280000">
  422.         <ele>349.00000</ele>
  423.         <time>2010-01-01T00:22:56Z</time>
  424.       </trkpt>
  425.       <trkpt lat="51.02581000" lon="8.754270000">
  426.         <ele>349.00000</ele>
  427.         <time>2010-01-01T00:22:57Z</time>
  428.       </trkpt>
  429.       <trkpt lat="51.02587000" lon="8.754320000">
  430.         <ele>349.00000</ele>
  431.         <time>2010-01-01T00:22:59Z</time>
  432.       </trkpt>
  433.       <trkpt lat="51.02594000" lon="8.754340000">
  434.         <ele>349.00000</ele>
  435.         <time>2010-01-01T00:23:02Z</time>
  436.       </trkpt>
  437.       <trkpt lat="51.02584000" lon="8.754450000">
  438.         <ele>351.00000</ele>
  439.         <time>2010-01-01T00:23:07Z</time>
  440.       </trkpt>
  441.       <trkpt lat="51.02541000" lon="8.755010000">
  442.         <ele>356.00000</ele>
  443.         <time>2010-01-01T00:23:29Z</time>
  444.       </trkpt>
  445.       <trkpt lat="51.02521000" lon="8.755270000">
  446.         <ele>357.00000</ele>
  447.         <time>2010-01-01T00:23:40Z</time>
  448.       </trkpt>
  449.       <trkpt lat="51.02499000" lon="8.755460000">
  450.         <ele>361.00000</ele>
  451.         <time>2010-01-01T00:23:50Z</time>
  452.       </trkpt>
  453.       <trkpt lat="51.02468000" lon="8.755670000">
  454.         <ele>364.00000</ele>
  455.         <time>2010-01-01T00:24:03Z</time>
  456.       </trkpt>
  457.       <trkpt lat="51.02420000" lon="8.756120000">
  458.         <ele>369.00000</ele>
  459.         <time>2010-01-01T00:24:26Z</time>
  460.       </trkpt>
  461.       <trkpt lat="51.02395000" lon="8.756400000">
  462.         <ele>370.00000</ele>
  463.         <time>2010-01-01T00:24:38Z</time>
  464.       </trkpt>
  465.       <trkpt lat="51.02396000" lon="8.756410000">
  466.         <ele>370.00000</ele>
  467.         <time>2010-01-01T00:24:38Z</time>
  468.       </trkpt>
  469.       <trkpt lat="51.02395000" lon="8.756410000">
  470.         <ele>370.00000</ele>
  471.         <time>2010-01-01T00:24:39Z</time>
  472.       </trkpt>
  473.       <trkpt lat="51.02404000" lon="8.756520000">
  474.         <ele>370.00000</ele>
  475.         <time>2010-01-01T00:24:43Z</time>
  476.       </trkpt>
  477.       <trkpt lat="51.02402000" lon="8.756530000">
  478.         <ele>371.00000</ele>
  479.         <time>2010-01-01T00:24:44Z</time>
  480.       </trkpt>
  481.       <trkpt lat="51.02402000" lon="8.756540000">
  482.         <ele>371.00000</ele>
  483.         <time>2010-01-01T00:24:44Z</time>
  484.       </trkpt>
  485.       <trkpt lat="51.02387000" lon="8.756640000">
  486.         <ele>371.00000</ele>
  487.         <time>2010-01-01T00:24:51Z</time>
  488.       </trkpt>
  489.       <trkpt lat="51.02366000" lon="8.756860000">
  490.         <ele>372.00000</ele>
  491.         <time>2010-01-01T00:25:01Z</time>
  492.       </trkpt>
  493.       <trkpt lat="51.02317000" lon="8.757360000">
  494.         <ele>372.00000</ele>
  495.         <time>2010-01-01T00:25:24Z</time>
  496.       </trkpt>
  497.       <trkpt lat="51.02225000" lon="8.758390000">
  498.         <ele>376.00000</ele>
  499.         <time>2010-01-01T00:26:09Z</time>
  500.       </trkpt>
  501.       <trkpt lat="51.02172000" lon="8.758970000">
  502.         <ele>377.00000</ele>
  503.         <time>2010-01-01T00:26:35Z</time>
  504.       </trkpt>
  505.       <trkpt lat="51.02111000" lon="8.759310000">
  506.         <ele>374.00000</ele>
  507.         <time>2010-01-01T00:27:01Z</time>
  508.       </trkpt>
  509.       <trkpt lat="51.02094000" lon="8.759410000">
  510.         <ele>373.00000</ele>
  511.         <time>2010-01-01T00:27:08Z</time>
  512.       </trkpt>
  513.       <trkpt lat="51.02091000" lon="8.759420000">
  514.         <ele>372.00000</ele>
  515.         <time>2010-01-01T00:27:09Z</time>
  516.       </trkpt>
  517.       <trkpt lat="51.02088000" lon="8.758740000">
  518.         <ele>371.00000</ele>
  519.         <time>2010-01-01T00:27:26Z</time>
  520.       </trkpt>
  521.       <trkpt lat="51.02088000" lon="8.758730000">
  522.         <ele>371.00000</ele>
  523.         <time>2010-01-01T00:27:27Z</time>
  524.       </trkpt>
  525.       <trkpt lat="51.02083000" lon="8.757280000">
  526.         <ele>371.00000</ele>
  527.         <time>2010-01-01T00:28:03Z</time>
  528.       </trkpt>
  529.       <trkpt lat="51.02083000" lon="8.757270000">
  530.         <ele>371.00000</ele>
  531.         <time>2010-01-01T00:28:04Z</time>
  532.       </trkpt>
  533.       <trkpt lat="51.02081000" lon="8.756920000">
  534.         <ele>370.00000</ele>
  535.         <time>2010-01-01T00:28:12Z</time>
  536.       </trkpt>
  537.       <trkpt lat="51.02081000" lon="8.756910000">
  538.         <ele>370.00000</ele>
  539.         <time>2010-01-01T00:28:13Z</time>
  540.       </trkpt>
  541.       <trkpt lat="51.02081000" lon="8.756870000">
  542.         <ele>370.00000</ele>
  543.         <time>2010-01-01T00:28:14Z</time>
  544.       </trkpt>
  545.       <trkpt lat="51.02047000" lon="8.756170000">
  546.         <ele>367.00000</ele>
  547.         <time>2010-01-01T00:28:36Z</time>
  548.       </trkpt>
  549.       <trkpt lat="51.02034000" lon="8.755860000">
  550.         <ele>367.00000</ele>
  551.         <time>2010-01-01T00:28:45Z</time>
  552.       </trkpt>
  553.     </trkseg>
  554.   </trk>
  555. </gpx>

Quellcode

Hier kannst du den Code kopieren und ihn in deinen bevorzugten Editor einfügen. Alternativ kannst du den gesamten Eintrag auch als Datei herunterladen.